Time,TemperatureF,DewpointF,PressureIn,WindDirection,WindDirectionDegrees,WindSpeedMPH,WindSpeedGustMPH,Humidity,HourlyPrecipIn,Conditions,Clouds,dailyrainin,SoftwareType,DateUTC
2013-07-18 00:01:00,91.0,58.0,29.80,SSE,147,1.0,3.0,33,0.00,,,0.00,,2013-07-18 07:01:00,
2013-07-18 00:11:00,91.0,58.0,29.80,SSE,147,1.0,3.0,33,0.00,,,0.00,,2013-07-18 07:11:00,
2013-07-18 00:22:00,90.0,57.0,29.80,SSE,161,0.0,0.0,33,0.00,,,0.00,,2013-07-18 07:22:00,
2013-07-18 00:32:00,93.0,57.0,29.78,SW,231,0.0,1.0,30,0.00,,,0.00,,2013-07-18 07:32:00,
2013-07-18 00:42:00,89.0,57.0,29.80,SSW,195,0.0,1.0,34,0.00,,,0.00,,2013-07-18 07:42:00,
2013-07-18 00:52:00,89.0,56.0,29.79,SSW,195,0.0,1.0,33,0.00,,,0.00,,2013-07-18 07:52:00,
2013-07-18 01:01:00,89.0,56.0,29.79,SSW,199,1.0,3.0,33,0.00,,,0.00,,2013-07-18 08:01:00,
2013-07-18 01:11:00,93.0,57.0,29.78,SW,231,0.0,1.0,30,0.00,,,0.00,,2013-07-18 08:11:00,
2013-07-18 01:21:00,89.0,56.0,29.79,SSW,202,1.0,1.0,33,0.00,,,0.00,,2013-07-18 08:21:00,
2013-07-18 01:32:00,89.0,57.0,29.79,SSW,202,1.0,3.0,34,0.00,,,0.00,,2013-07-18 08:32:00,
2013-07-18 01:42:00,89.0,57.0,29.79,SSW,202,0.0,1.0,34,0.00,,,0.00,,2013-07-18 08:42:00,
2013-07-18 01:51:00,89.0,58.0,29.79,SSW,201,0.0,0.0,35,0.00,,,0.00,,2013-07-18 08:51:00,
2013-07-18 02:01:00,89.0,58.0,29.78,SSW,201,0.0,0.0,35,0.00,,,0.00,,2013-07-18 09:01:00,
2013-07-18 02:11:00,89.0,58.0,29.78,SSW,201,0.0,0.0,35,0.00,,,0.00,,2013-07-18 09:11:00,
2013-07-18 02:21:00,87.0,57.0,29.78,SW,223,0.0,0.0,36,0.00,,,0.00,,2013-07-18 09:21:00,
2013-07-18 02:31:00,89.0,58.0,29.78,SSW,201,0.0,0.0,35,0.00,,,0.00,,2013-07-18 09:31:00,
2013-07-18 02:41:00,87.0,58.0,29.77,SW,223,0.0,2.0,37,0.00,,,0.00,,2013-07-18 09:41:00,
2013-07-18 02:51:00,87.0,58.0,29.77,SW,229,1.0,2.0,37,0.00,,,0.00,,2013-07-18 09:51:00,
2013-07-18 03:01:00,89.0,58.0,29.78,SSW,201,0.0,0.0,35,0.00,,,0.00,,2013-07-18 10:01:00,
2013-07-18 03:11:00,87.0,57.0,29.77,SW,229,0.0,0.0,36,0.00,,,0.00,,2013-07-18 10:11:00,
2013-07-18 03:21:00,89.0,58.0,29.78,SSW,201,0.0,0.0,35,0.00,,,0.00,,2013-07-18 10:21:00,
2013-07-18 03:32:00,87.0,57.0,29.76,SW,219,1.0,3.0,36,0.00,,,0.00,,2013-07-18 10:32:00,
2013-07-18 03:42:00,86.0,57.0,29.76,SW,223,0.0,3.0,37,0.00,,,0.00,,2013-07-18 10:42:00,
2013-07-18 03:52:00,89.0,58.0,29.78,SSW,201,0.0,0.0,35,0.00,,,0.00,,2013-07-18 10:52:00,
2013-07-18 04:01:00,86.0,54.0,29.76,SW,229,0.0,0.0,33,0.00,,,0.00,,2013-07-18 11:01:00,
2013-07-18 04:11:00,86.0,54.0,29.76,SW,229,0.0,0.0,33,0.00,,,0.00,,2013-07-18 11:11:00,
2013-07-18 04:22:00,86.0,54.0,29.76,SW,230,0.0,0.0,34,0.00,,,0.00,,2013-07-18 11:22:00,
2013-07-18 04:32:00,85.0,54.0,29.76,SW,230,0.0,0.0,35,0.00,,,0.00,,2013-07-18 11:32:00,
2013-07-18 04:43:00,85.0,54.0,29.76,SW,229,0.0,0.0,35,0.00,,,0.00,,2013-07-18 11:43:00,
2013-07-18 04:52:00,84.0,54.0,29.76,SW,230,0.0,0.0,36,0.00,,,0.00,,2013-07-18 11:52:00,
2013-07-18 05:01:00,89.0,58.0,29.78,SSW,201,0.0,0.0,35,0.00,,,0.00,,2013-07-18 12:01:00,
2013-07-18 05:11:00,84.0,56.0,29.77,SW,222,0.0,0.0,38,0.00,,,0.00,,2013-07-18 12:11:00,
2013-07-18 05:22:00,89.0,58.0,29.78,SSW,201,0.0,0.0,35,0.00,,,0.00,,2013-07-18 12:22:00,
2013-07-18 05:32:00,89.0,58.0,29.78,SSW,201,0.0,0.0,35,0.00,,,0.00,,2013-07-18 12:32:00,
2013-07-18 05:42:00,89.0,58.0,29.78,SSW,201,0.0,0.0,35,0.00,,,0.00,,2013-07-18 12:42:00,
2013-07-18 05:52:00,83.0,58.0,29.77,SW,235,0.0,1.0,42,0.00,,,0.00,,2013-07-18 12:52:00,
2013-07-18 06:01:00,83.0,58.0,29.78,SW,236,0.0,0.0,42,0.00,,,0.00,,2013-07-18 13:01:00,
2013-07-18 06:11:00,83.0,58.0,29.78,SW,236,0.0,0.0,42,0.00,,,0.00,,2013-07-18 13:11:00,
2013-07-18 06:52:00,83.0,58.0,29.79,SW,236,0.0,0.0,43,0.00,,,0.00,,2013-07-18 13:52:00,
2013-07-18 07:02:00,83.0,58.0,29.79,SW,236,0.0,0.0,43,0.00,,,0.00,,2013-07-18 14:02:00,
2013-07-18 07:52:00,83.0,58.0,29.79,SW,236,0.0,0.0,43,0.00,,,0.00,,2013-07-18 14:52:00,
2013-07-18 08:01:00,83.0,58.0,29.79,SW,236,0.0,0.0,43,0.00,,,0.00,,2013-07-18 15:01:00,
2013-07-18 08:11:00,83.0,58.0,29.79,SW,236,0.0,0.0,43,0.00,,,0.00,,2013-07-18 15:11:00,
2013-07-18 08:42:00,99.0,57.0,29.82,East,85,1.0,1.0,25,0.00,,,0.00,,2013-07-18 15:42:00,
2013-07-18 08:52:00,99.0,57.0,29.82,East,85,1.0,1.0,25,0.00,,,0.00,,2013-07-18 15:52:00,
2013-07-18 09:01:00,100.0,55.0,29.81,SE,130,2.0,4.0,23,0.00,,,0.00,,2013-07-18 16:01:00,
2013-07-18 09:11:00,100.0,55.0,29.81,SE,130,2.0,4.0,23,0.00,,,0.00,,2013-07-18 16:11:00,
2013-07-18 12:32:00,106.0,65.0,29.79,SW,220,3.0,4.0,27,0.00,,,0.00,,2013-07-18 19:32:00,
2013-07-18 13:21:00,108.0,61.0,29.77,SW,225,3.0,4.0,22,0.00,,,0.00,,2013-07-18 20:21:00,
2013-07-18 13:43:00,109.0,58.0,29.76,NW,320,3.0,5.0,19,0.00,,,0.00,,2013-07-18 20:43:00,
2013-07-18 13:52:00,109.0,58.0,29.76,NW,320,3.0,5.0,19,0.00,,,0.00,,2013-07-18 20:52:00,
2013-07-18 14:01:00,111.0,58.0,29.75,SE,129,1.0,5.0,18,0.00,,,0.00,,2013-07-18 21:01:00,
2013-07-18 14:11:00,111.0,58.0,29.75,SE,129,1.0,5.0,18,0.00,,,0.00,,2013-07-18 21:11:00,
2013-07-18 14:22:00,107.0,60.0,29.76,SW,228,5.0,5.0,22,0.00,,,0.00,,2013-07-18 21:22:00,
2013-07-18 14:52:00,107.0,60.0,29.76,SW,228,5.0,5.0,22,0.00,,,0.00,,2013-07-18 21:52:00,
2013-07-18 15:11:00,110.0,54.0,29.72,NW,317,0.0,2.0,16,0.00,,,0.00,,2013-07-18 22:11:00,
2013-07-18 15:21:00,111.0,53.0,29.71,SSE,148,5.0,6.0,15,0.00,,,0.00,,2013-07-18 22:21:00,
2013-07-18 15:32:00,110.0,54.0,29.70,SSE,168,2.0,8.0,16,0.00,,,0.00,,2013-07-18 22:32:00,
2013-07-18 16:01:00,113.0,54.0,29.68,NNW,340,3.0,4.0,15,0.00,,,0.00,,2013-07-18 23:01:00,
2013-07-18 16:42:00,112.0,55.0,29.66,NNW,340,4.0,7.0,16,0.00,,,0.00,,2013-07-18 23:42:00,
2013-07-18 16:52:00,112.0,55.0,29.66,NNW,340,4.0,7.0,16,0.00,,,0.00,,2013-07-18 23:52:00,
2013-07-18 17:01:00,107.0,60.0,29.76,SW,228,5.0,5.0,22,0.00,,,0.00,,2013-07-19 00:01:00,
2013-07-18 17:11:00,113.0,56.0,29.66,West,266,2.0,5.0,16,0.00,,,0.00,,2013-07-19 00:11:00,
2013-07-18 17:22:00,113.0,56.0,29.66,West,272,2.0,4.0,16,0.00,,,0.00,,2013-07-19 00:22:00,
2013-07-18 17:42:00,112.0,55.0,29.65,West,262,3.0,5.0,16,0.00,,,0.00,,2013-07-19 00:42:00,
2013-07-18 18:01:00,112.0,55.0,29.66,West,264,4.0,7.0,16,0.00,,,0.00,,2013-07-19 01:01:00,
2013-07-18 18:42:00,108.0,55.0,29.65,SSW,193,4.0,8.0,18,0.00,,,0.00,,2013-07-19 01:42:00,
2013-07-18 19:01:00,108.0,55.0,29.66,SW,217,6.0,9.0,18,0.00,,,0.00,,2013-07-19 02:01:00,
2013-07-18 19:52:00,107.0,53.0,29.66,SW,217,6.0,7.0,17,0.00,,,0.00,,2013-07-19 02:52:00,
2013-07-18 20:01:00,107.0,60.0,29.76,SW,228,5.0,5.0,22,0.00,,,0.00,,2013-07-19 03:01:00,
2013-07-18 20:52:00,101.0,67.0,29.69,South,173,5.0,8.0,34,0.00,,,0.00,,2013-07-19 03:52:00,
2013-07-18 21:32:00,98.0,65.0,29.71,South,188,8.0,12.0,34,0.00,,,0.00,,2013-07-19 04:32:00,
2013-07-18 21:52:00,97.0,62.0,29.72,SSE,162,3.0,10.0,32,0.00,,,0.00,,2013-07-19 04:52:00,
2013-07-18 22:02:00,97.0,63.0,29.72,South,174,2.0,6.0,33,0.00,,,0.00,,2013-07-19 05:02:00,
2013-07-18 22:11:00,97.0,63.0,29.72,South,174,2.0,6.0,33,0.00,,,0.00,,2013-07-19 05:11:00,
2013-07-18 22:21:00,96.0,63.0,29.72,South,180,4.0,9.0,34,0.00,,,0.00,,2013-07-19 05:21:00,
2013-07-18 22:32:00,96.0,63.0,29.72,South,180,4.0,9.0,34,0.00,,,0.00,,2013-07-19 05:32:00,
2013-07-18 22:42:00,96.0,63.0,29.72,South,180,4.0,9.0,34,0.00,,,0.00,,2013-07-19 05:42:00,
2013-07-18 22:52:00,96.0,63.0,29.72,South,180,4.0,9.0,34,0.00,,,0.00,,2013-07-19 05:52:00,